Terminal Aerodrome Forecast
Issued by NWS Los Angeles, CA

Home | Current Version | Previous Version | Text Only | Print | Product List | Glossary On
Versions: 1 2 3 4 5 6 7 8 9 10 11 12 13 14 15 16 17 18 19 20 21 22 23 24
000
FTUS46 KLOX 310500 RRA
TAFSMX
TAF
KSMX 310548Z 3106/0106 31007KT 1SM BR OVC002
     FM310800 VRB03KT 1/4SM FG VV001
     FM311500 VRB03KT 2SM BR BKN003
     FM311630 30006KT P6SM SCT250
     FM312000 31012KT P6SM SKC
     FM010300 VRB03KT 5SM BR OVC003=

USA.gov is the U.S. government's official web portal to all federal, state and local government web resources and services.